createdAt,value
2022-12-02T00:01:30.280Z,34.58
2022-12-02T00:04:22.327Z,32.47
2022-12-02T00:07:00.347Z,33.42
2022-12-02T00:09:35.981Z,35.17
2022-12-02T00:12:32.759Z,33.00
2022-12-02T00:15:29.497Z,34.03
2022-12-02T00:17:58.803Z,29.08
2022-12-02T00:20:29.692Z,30.85
2022-12-02T00:23:00.720Z,32.55
2022-12-02T00:25:48.242Z,34.38
2022-12-02T00:28:19.257Z,34.28
2022-12-02T00:30:48.710Z,33.67
2022-12-02T00:33:18.307Z,30.30
2022-12-02T00:35:47.864Z,35.22
2022-12-02T00:38:15.356Z,31.50
2022-12-02T00:40:46.120Z,35.40
2022-12-02T00:43:32.210Z,33.47
2022-12-02T00:46:18.497Z,35.28
2022-12-02T00:48:48.259Z,32.40
2022-12-02T00:51:17.812Z,32.50
2022-12-02T00:54:10.572Z,33.20
2022-12-02T00:57:03.176Z,30.95
2022-12-02T00:59:33.742Z,36.88
2022-12-02T01:02:03.654Z,32.35
2022-12-02T01:04:32.221Z,30.60
2022-12-02T01:06:59.497Z,33.22
2022-12-02T01:09:26.947Z,31.73
2022-12-02T01:11:58.462Z,31.90
2022-12-02T01:14:37.859Z,29.02
2022-12-02T01:17:15.956Z,30.00
2022-12-02T01:19:58.507Z,33.80
2022-12-02T01:22:25.821Z,30.83
2022-12-02T01:24:56.500Z,31.63
2022-12-02T01:27:57.295Z,32.35
2022-12-02T01:30:32.254Z,32.95
2022-12-02T01:33:00.038Z,30.27
2022-12-02T01:35:32.048Z,33.42
2022-12-02T01:37:59.547Z,31.23
2022-12-02T01:40:29.181Z,31.88
2022-12-02T01:42:56.567Z,32.90
2022-12-02T01:45:27.527Z,31.50
2022-12-02T01:47:55.388Z,33.85
2022-12-02T01:50:22.960Z,33.50
2022-12-02T01:52:56.422Z,35.55
2022-12-02T01:55:28.680Z,35.72
2022-12-02T01:57:58.649Z,31.00
2022-12-02T02:00:35.159Z,31.90
2022-12-02T02:03:05.347Z,32.35
2022-12-02T02:05:40.109Z,29.25
2022-12-02T02:08:12.743Z,31.67
2022-12-02T02:10:45.395Z,30.27
2022-12-02T02:13:15.814Z,33.65
2022-12-02T02:15:46.094Z,34.33
2022-12-02T02:18:16.697Z,32.22
2022-12-02T02:20:44.307Z,32.90
2022-12-02T02:23:25.029Z,32.10
2022-12-02T02:25:59.276Z,34.90
2022-12-02T02:28:38.191Z,30.30
2022-12-02T02:31:09.441Z,31.20
2022-12-02T02:33:45.243Z,31.63
2022-12-02T02:37:25.375Z,31.17
2022-12-02T02:41:51.241Z,30.80
2022-12-02T02:44:30.163Z,32.35
2022-12-02T02:47:01.598Z,31.73
2022-12-02T02:49:43.225Z,29.55
2022-12-02T02:52:14.235Z,31.03
2022-12-02T02:54:43.718Z,32.67
2022-12-02T02:57:11.254Z,31.92
2022-12-02T02:59:45.727Z,30.05
2022-12-02T03:02:14.060Z,30.88
2022-12-02T03:04:43.887Z,32.03
2022-12-02T03:07:18.974Z,32.40
2022-12-02T03:09:48.121Z,31.45
2022-12-02T03:12:17.273Z,33.70
2022-12-02T03:14:45.683Z,29.98
2022-12-02T03:17:14.222Z,30.23
2022-12-02T03:19:42.668Z,29.95
2022-12-02T03:22:11.692Z,34.67
2022-12-02T03:24:39.838Z,29.90
2022-12-02T03:27:11.681Z,31.92
2022-12-02T03:29:39.220Z,33.38
2022-12-02T03:32:07.132Z,34.58
2022-12-02T03:34:34.469Z,32.85
2022-12-02T03:37:08.532Z,32.03
2022-12-02T03:39:38.814Z,31.60
2022-12-02T03:42:07.884Z,33.10
2022-12-02T03:44:35.350Z,33.08
2022-12-02T03:47:03.809Z,32.20
2022-12-02T03:49:35.121Z,31.63
2022-12-02T03:52:05.668Z,33.97
2022-12-02T03:54:34.291Z,30.77
2022-12-02T03:57:05.794Z,30.77
2022-12-02T03:59:34.833Z,33.53
2022-12-02T04:02:02.382Z,33.45
2022-12-02T04:04:34.407Z,31.27
2022-12-02T04:07:04.455Z,30.30
2022-12-02T04:09:31.861Z,31.23
2022-12-02T04:11:59.052Z,33.95
2022-12-02T04:14:26.218Z,28.80
2022-12-02T04:16:53.463Z,30.63
2022-12-02T04:19:20.884Z,33.35
2022-12-02T04:21:48.652Z,32.13
2022-12-02T04:24:16.301Z,33.30
2022-12-02T04:26:44.251Z,30.92
2022-12-02T04:29:11.882Z,32.42
2022-12-02T04:31:39.355Z,29.27
2022-12-02T04:34:06.809Z,31.63
2022-12-02T04:36:37.530Z,32.42
2022-12-02T04:39:26.419Z,30.45
2022-12-02T04:41:53.780Z,30.85
2022-12-02T04:44:21.237Z,33.20
2022-12-02T04:46:48.706Z,30.40
2022-12-02T04:49:16.187Z,33.13
2022-12-02T04:51:43.602Z,31.75
2022-12-02T04:54:11.070Z,33.67
2022-12-02T04:56:38.787Z,32.17
2022-12-02T04:59:06.404Z,31.42
2022-12-02T05:01:35.032Z,36.20
2022-12-02T05:04:02.342Z,30.70
2022-12-02T05:06:29.599Z,31.15
2022-12-02T05:08:56.775Z,33.60
2022-12-02T05:11:24.135Z,30.15
2022-12-02T05:13:51.476Z,31.90
2022-12-02T05:16:19.007Z,32.30
2022-12-02T05:18:46.217Z,33.03
2022-12-02T05:21:13.470Z,32.95
2022-12-02T05:23:40.802Z,31.40
2022-12-02T05:26:08.046Z,33.80
2022-12-02T05:28:35.353Z,34.72
2022-12-02T05:31:02.752Z,32.55
2022-12-02T05:33:30.388Z,31.95
2022-12-02T05:35:57.777Z,35.40
2022-12-02T05:38:24.962Z,32.95
2022-12-02T05:40:56.736Z,32.50
2022-12-02T05:43:30.035Z,32.95
2022-12-02T05:46:36.775Z,32.35
2022-12-02T05:49:20.965Z,32.80
2022-12-02T05:52:00.912Z,32.03
2022-12-02T05:54:29.794Z,33.65
2022-12-02T05:57:02.074Z,32.22
2022-12-02T05:59:30.664Z,32.75
2022-12-02T06:01:59.670Z,36.25
2022-12-02T06:04:33.115Z,33.72
2022-12-02T06:07:10.741Z,32.28
2022-12-02T06:09:39.718Z,32.42
2022-12-02T06:12:17.750Z,35.67
2022-12-02T06:14:53.817Z,36.90
2022-12-02T06:17:22.037Z,32.03
2022-12-02T06:19:57.121Z,33.13
2022-12-02T06:22:32.456Z,31.23
2022-12-02T06:25:16.848Z,34.78
2022-12-02T06:27:44.502Z,38.90
2022-12-02T06:30:15.745Z,34.60
2022-12-02T06:32:56.301Z,34.15
2022-12-02T06:35:38.513Z,32.10
2022-12-02T06:38:38.093Z,31.02
2022-12-02T06:41:34.435Z,32.80
2022-12-02T06:44:32.269Z,32.40
2022-12-02T06:47:32.566Z,32.92
2022-12-02T06:50:07.188Z,33.75
2022-12-02T06:52:45.269Z,31.27
2022-12-02T06:55:36.873Z,31.98
2022-12-02T06:58:34.749Z,33.20
2022-12-02T07:01:08.098Z,29.90
2022-12-02T07:03:45.284Z,33.05
2022-12-02T07:06:27.370Z,32.35
2022-12-02T07:09:23.551Z,32.92
2022-12-02T07:12:17.217Z,34.17
2022-12-02T07:15:14.744Z,33.97
2022-12-02T07:17:44.695Z,33.47
2022-12-02T07:20:30.224Z,35.17
2022-12-02T07:23:23.786Z,36.17
2022-12-02T07:25:54.843Z,35.33
2022-12-02T07:28:27.335Z,35.88
2022-12-02T07:31:14.171Z,35.17
2022-12-02T07:33:41.580Z,38.17
2022-12-02T07:36:11.198Z,39.08
2022-12-02T07:41:27.838Z,40.10
2022-12-02T07:43:58.098Z,36.08
2022-12-02T07:46:25.734Z,34.30
2022-12-02T07:48:57.324Z,36.28
2022-12-02T07:51:25.756Z,36.10
2022-12-02T07:53:53.560Z,40.97
2022-12-02T07:56:23.201Z,37.20
2022-12-02T08:01:38.892Z,40.00
2022-12-02T08:04:06.351Z,42.85
2022-12-02T08:06:38.992Z,45.53
2022-12-02T08:09:09.592Z,42.22
2022-12-02T08:11:37.688Z,49.10
2022-12-02T08:14:05.300Z,42.95
2022-12-02T08:16:33.440Z,45.22
2022-12-02T08:19:01.390Z,44.08
2022-12-02T08:21:32.233Z,39.75
2022-12-02T08:24:00.358Z,43.53
2022-12-02T08:26:28.121Z,41.92
2022-12-02T08:28:55.668Z,37.53
2022-12-02T08:31:23.209Z,40.10
2022-12-02T08:33:52.129Z,40.13
2022-12-02T08:36:20.867Z,37.50
2022-12-02T08:38:49.533Z,35.40
2022-12-02T08:41:17.874Z,37.10
2022-12-02T08:43:45.385Z,34.97
2022-12-02T08:46:14.216Z,34.40
2022-12-02T08:48:42.944Z,38.30
2022-12-02T08:51:10.944Z,37.90
2022-12-02T08:53:38.754Z,32.70
2022-12-02T08:56:06.412Z,37.55
2022-12-02T08:58:33.844Z,35.57
2022-12-02T09:01:01.120Z,36.05
2022-12-02T09:03:28.501Z,34.90
2022-12-02T09:05:56.171Z,35.08
2022-12-02T09:08:23.859Z,37.03
2022-12-02T09:10:52.108Z,34.90
2022-12-02T09:13:20.002Z,32.95
2022-12-02T09:15:47.606Z,34.85
2022-12-02T09:18:15.168Z,34.85
2022-12-02T09:20:42.976Z,33.65
2022-12-02T09:23:10.701Z,32.45
2022-12-02T09:25:38.150Z,34.75
2022-12-02T09:28:05.579Z,31.35
2022-12-02T09:30:32.912Z,27.67
2022-12-02T09:33:00.244Z,28.52
2022-12-02T09:35:27.926Z,28.92
2022-12-02T09:37:55.614Z,30.33
2022-12-02T09:40:23.528Z,29.52
2022-12-02T09:42:52.117Z,31.52
2022-12-02T09:45:19.780Z,30.85
2022-12-02T09:47:47.940Z,31.52
2022-12-02T09:50:17.217Z,28.23
2022-12-02T09:52:46.174Z,29.60
2022-12-02T09:55:20.492Z,29.10
2022-12-02T09:57:48.263Z,31.17
2022-12-02T10:00:21.893Z,27.10
2022-12-02T10:02:53.479Z,27.88
2022-12-02T10:05:31.046Z,29.45
2022-12-02T10:08:04.077Z,29.80
2022-12-02T10:10:43.381Z,28.38
2022-12-02T10:13:18.793Z,28.75
2022-12-02T10:15:52.220Z,28.02
2022-12-02T10:18:30.847Z,27.58
2022-12-02T10:20:58.467Z,28.13
2022-12-02T10:23:29.266Z,25.67
2022-12-02T10:26:14.597Z,26.02
2022-12-02T10:28:43.333Z,24.70
2022-12-02T10:31:22.878Z,22.30
2022-12-02T10:34:07.355Z,24.52
2022-12-02T10:36:41.895Z,23.27
2022-12-02T10:39:38.190Z,20.92
2022-12-02T10:42:08.572Z,21.90
2022-12-02T10:44:46.444Z,24.20
2022-12-02T10:47:27.150Z,24.00
2022-12-02T10:50:01.129Z,23.00
2022-12-02T10:52:56.183Z,22.58
2022-12-02T10:55:27.163Z,19.75
2022-12-02T10:57:55.952Z,21.20
2022-12-02T11:00:26.904Z,19.95
2022-12-02T11:02:59.144Z,21.05
2022-12-02T11:05:31.741Z,20.23
2022-12-02T11:08:01.646Z,20.80
2022-12-02T11:10:43.577Z,18.63
2022-12-02T11:13:13.900Z,20.50
2022-12-02T11:15:48.993Z,18.45
2022-12-02T11:18:25.419Z,20.83
2022-12-02T11:21:05.189Z,18.15
2022-12-02T11:23:39.577Z,17.20
2022-12-02T11:26:15.781Z,16.90
2022-12-02T11:29:17.505Z,16.40
2022-12-02T11:32:27.108Z,17.13
2022-12-02T11:37:48.221Z,15.88
2022-12-02T11:40:18.503Z,15.30
2022-12-02T11:42:46.890Z,18.08
2022-12-02T11:45:18.318Z,18.83
2022-12-02T11:47:56.273Z,19.05
2022-12-02T11:50:30.425Z,16.00
2022-12-02T11:53:25.357Z,17.10
2022-12-02T11:55:54.715Z,17.88
2022-12-02T11:58:32.638Z,17.30
2022-12-02T12:01:19.384Z,16.85
2022-12-02T12:03:52.896Z,15.90
2022-12-02T12:06:25.037Z,16.45
2022-12-02T12:08:56.905Z,16.85
2022-12-02T12:11:37.014Z,13.73
2022-12-02T12:14:11.960Z,15.85
2022-12-02T12:16:43.378Z,15.10
2022-12-02T12:19:13.669Z,14.32
2022-12-02T12:21:57.070Z,14.93
2022-12-02T12:24:25.498Z,16.98
2022-12-02T12:27:04.899Z,15.60
2022-12-02T12:29:36.089Z,13.38
2022-12-02T12:32:06.113Z,12.80
2022-12-02T12:34:34.161Z,12.25
2022-12-02T12:37:01.678Z,11.75
2022-12-02T12:39:29.090Z,13.02
2022-12-02T12:42:01.055Z,11.98
2022-12-02T12:44:31.979Z,12.48
2022-12-02T12:47:06.939Z,13.10
2022-12-02T12:49:34.993Z,13.60
2022-12-02T12:52:02.747Z,12.57
2022-12-02T12:54:30.788Z,13.30
2022-12-02T12:56:58.039Z,12.35
2022-12-02T12:59:25.422Z,12.82
2022-12-02T13:01:52.973Z,9.98
2022-12-02T13:04:22.641Z,11.27
2022-12-02T13:06:50.532Z,9.73
2022-12-02T13:09:18.002Z,10.65
2022-12-02T13:11:45.468Z,9.25
2022-12-02T13:14:12.704Z,9.95
2022-12-02T13:16:39.920Z,9.23
2022-12-02T13:19:07.208Z,10.48
2022-12-02T13:21:34.534Z,9.55
2022-12-02T13:24:03.488Z,9.48
2022-12-02T13:26:33.927Z,8.82
2022-12-02T13:29:01.427Z,9.90
2022-12-02T13:31:28.813Z,10.18
2022-12-02T13:33:56.694Z,11.32
2022-12-02T13:36:24.078Z,11.40
2022-12-02T13:38:51.419Z,8.98
2022-12-02T13:41:23.487Z,8.77
2022-12-02T13:43:50.816Z,9.35
2022-12-02T13:46:18.334Z,10.45
2022-12-02T13:48:46.030Z,8.40
2022-12-02T13:51:13.696Z,10.18
2022-12-02T13:53:43.430Z,10.85
2022-12-02T13:56:13.782Z,11.02
2022-12-02T13:58:41.166Z,8.93
2022-12-02T14:01:08.916Z,9.85
2022-12-02T14:03:37.104Z,9.48
2022-12-02T14:06:04.889Z,8.63
2022-12-02T14:08:34.748Z,9.07
2022-12-02T14:11:02.017Z,9.55
2022-12-02T14:13:29.387Z,10.05
2022-12-02T14:15:56.901Z,9.35
2022-12-02T14:18:29.848Z,8.52
2022-12-02T14:20:57.331Z,10.30
2022-12-02T14:23:24.652Z,9.45
2022-12-02T14:25:51.886Z,10.10
2022-12-02T14:28:19.536Z,8.43
2022-12-02T14:30:46.914Z,9.23
2022-12-02T14:33:14.497Z,8.48
2022-12-02T14:35:42.127Z,10.27
2022-12-02T14:38:09.465Z,9.38
2022-12-02T14:40:36.717Z,9.30
2022-12-02T14:43:11.166Z,8.15
2022-12-02T14:45:41.491Z,8.88
2022-12-02T14:48:08.901Z,9.18
2022-12-02T14:50:36.418Z,9.02
2022-12-02T14:53:03.758Z,9.57
2022-12-02T14:55:31.485Z,9.18
2022-12-02T14:57:58.807Z,9.68
2022-12-02T15:00:26.485Z,10.65
2022-12-02T15:02:54.335Z,10.30
2022-12-02T15:05:29.853Z,9.60
2022-12-02T15:08:07.823Z,9.77
2022-12-02T15:10:41.855Z,8.77
2022-12-02T15:13:10.617Z,9.95
2022-12-02T15:15:40.766Z,11.82
2022-12-02T15:18:25.594Z,10.02
2022-12-02T15:21:10.673Z,9.07
2022-12-02T15:24:11.850Z,9.68
2022-12-02T15:26:43.413Z,10.13
2022-12-02T15:29:15.380Z,9.68
2022-12-02T15:31:46.606Z,11.20
2022-12-02T15:34:19.348Z,9.55
2022-12-02T15:36:49.000Z,10.52
2022-12-02T15:39:16.922Z,10.15
2022-12-02T15:41:44.310Z,9.35
2022-12-02T15:44:11.588Z,9.10
2022-12-02T15:46:39.100Z,9.95
2022-12-02T15:49:06.503Z,10.40
2022-12-02T15:51:33.926Z,11.18
2022-12-02T15:54:04.144Z,9.45
2022-12-02T15:56:34.437Z,10.07
2022-12-02T15:59:04.132Z,9.48
2022-12-02T16:01:32.504Z,11.23
2022-12-02T16:04:02.144Z,7.93
2022-12-02T16:06:49.473Z,10.40
2022-12-02T16:09:18.694Z,9.80
2022-12-02T16:11:49.212Z,8.68
2022-12-02T16:14:21.415Z,9.73
2022-12-02T16:17:06.151Z,9.55
2022-12-02T16:19:33.602Z,12.73
2022-12-02T16:22:00.881Z,9.80
2022-12-02T16:24:30.739Z,10.85
2022-12-02T16:26:59.328Z,11.63
2022-12-02T16:29:27.407Z,13.85
2022-12-02T16:31:57.478Z,10.20
2022-12-02T16:34:49.552Z,10.50
2022-12-02T16:37:20.363Z,11.75
2022-12-02T16:39:48.190Z,9.18
2022-12-02T16:42:19.559Z,10.93
2022-12-02T16:44:55.208Z,10.30
2022-12-02T16:47:31.612Z,9.77
2022-12-02T16:50:01.675Z,10.80
2022-12-02T16:52:55.745Z,9.63
2022-12-02T16:55:25.501Z,10.35
2022-12-02T16:58:09.336Z,10.32
2022-12-02T17:00:46.591Z,10.65
2022-12-02T17:03:14.045Z,12.52
2022-12-02T17:05:43.520Z,9.88
2022-12-02T17:08:11.006Z,9.70
2022-12-02T17:10:41.802Z,10.02
2022-12-02T17:13:09.110Z,11.15
2022-12-02T17:15:36.920Z,11.13
2022-12-02T17:18:07.266Z,8.88
2022-12-02T17:20:41.335Z,12.48
2022-12-02T17:23:09.920Z,9.52
2022-12-02T17:25:37.337Z,10.05
2022-12-02T17:28:12.203Z,9.77
2022-12-02T17:30:46.878Z,8.57
2022-12-02T17:33:14.324Z,9.30
2022-12-02T17:35:41.511Z,11.85
2022-12-02T17:38:08.796Z,9.70
2022-12-02T17:40:36.141Z,10.57
2022-12-02T17:43:03.451Z,11.05
2022-12-02T17:45:30.865Z,11.45
2022-12-02T17:48:05.003Z,9.82
2022-12-02T17:50:50.111Z,9.82
2022-12-02T17:53:17.359Z,11.60
2022-12-02T17:55:44.712Z,12.95
2022-12-02T17:58:12.056Z,11.30
2022-12-02T18:00:41.799Z,10.85
2022-12-02T18:03:09.384Z,9.93
2022-12-02T18:05:36.919Z,9.13
2022-12-02T18:08:04.675Z,9.45
2022-12-02T18:10:32.143Z,9.20
2022-12-02T18:12:59.645Z,10.80
2022-12-02T18:15:27.191Z,10.75
2022-12-02T18:17:54.853Z,9.95
2022-12-02T18:20:23.045Z,9.45
2022-12-02T18:22:50.435Z,10.90
2022-12-02T18:25:18.008Z,9.02
2022-12-02T18:27:45.592Z,10.98
2022-12-02T18:30:17.402Z,11.43
2022-12-02T18:32:46.911Z,10.63
2022-12-02T18:35:15.541Z,11.55
2022-12-02T18:37:42.995Z,11.38
2022-12-02T18:40:20.449Z,12.02
2022-12-02T18:42:51.220Z,12.57
2022-12-02T18:45:18.721Z,12.85
2022-12-02T18:47:50.840Z,12.70
2022-12-02T18:50:28.003Z,11.65
2022-12-02T18:52:55.666Z,11.88
2022-12-02T18:55:22.949Z,12.32
2022-12-02T18:57:50.289Z,13.52
2022-12-02T19:00:18.441Z,14.07
2022-12-02T19:02:49.456Z,13.27
2022-12-02T19:05:19.193Z,11.85
2022-12-02T19:07:46.732Z,11.98
2022-12-02T19:10:17.023Z,11.15
2022-12-02T19:12:44.645Z,11.18
2022-12-02T19:15:11.948Z,11.50
2022-12-02T19:17:39.481Z,11.60
2022-12-02T19:20:08.095Z,11.27
2022-12-02T19:22:35.491Z,10.63
2022-12-02T19:25:03.878Z,10.15
2022-12-02T19:27:56.788Z,10.85
2022-12-02T19:30:18.867Z,10.35
2022-12-02T19:32:46.187Z,11.32
2022-12-02T19:35:13.566Z,11.23
2022-12-02T19:37:40.946Z,9.45
2022-12-02T19:40:09.528Z,9.85
2022-12-02T19:42:36.863Z,9.88
2022-12-02T19:45:05.633Z,9.98
2022-12-02T19:49:08.573Z,10.13
2022-12-02T19:50:21.810Z,11.18
2022-12-02T19:52:52.202Z,9.50
2022-12-02T19:55:19.584Z,10.60
2022-12-02T19:57:47.432Z,10.20
2022-12-02T20:00:18.159Z,8.70
2022-12-02T20:02:47.889Z,10.55
2022-12-02T20:05:21.397Z,9.45
2022-12-02T20:07:50.134Z,9.30
2022-12-02T20:10:23.695Z,9.20
2022-12-02T20:14:43.749Z,8.65
2022-12-02T20:17:18.355Z,8.38
2022-12-02T20:19:46.481Z,9.13
2022-12-02T20:22:13.746Z,9.85
2022-12-02T20:24:41.201Z,8.63
2022-12-02T20:27:08.613Z,9.65
2022-12-02T20:29:36.128Z,13.95
2022-12-02T20:32:06.371Z,11.52
2022-12-02T20:34:34.802Z,12.70
2022-12-02T20:37:03.040Z,11.48
2022-12-02T20:39:30.600Z,12.70
2022-12-02T20:41:58.122Z,13.15
2022-12-02T20:44:26.064Z,16.00
2022-12-02T20:46:53.813Z,16.08
2022-12-02T20:49:21.098Z,14.80
2022-12-02T20:51:48.395Z,18.15
2022-12-02T20:54:15.906Z,16.92
2022-12-02T20:56:43.309Z,18.83
2022-12-02T20:59:10.718Z,21.10
2022-12-02T21:01:40.689Z,19.13
2022-12-02T21:04:08.181Z,23.67
2022-12-02T21:06:37.751Z,18.58
2022-12-02T21:09:05.587Z,27.13
2022-12-02T21:11:33.008Z,31.60
2022-12-02T21:14:04.333Z,33.10
2022-12-02T21:16:31.812Z,35.97
2022-12-02T21:18:59.235Z,37.42
2022-12-02T21:21:29.055Z,39.08
2022-12-02T21:24:01.818Z,37.30
2022-12-02T21:26:32.460Z,39.08
2022-12-02T21:29:00.807Z,39.40
2022-12-02T21:31:28.030Z,41.13
2022-12-02T21:33:55.444Z,39.08
2022-12-02T21:36:23.035Z,37.13
2022-12-02T21:38:50.760Z,37.03
2022-12-02T21:41:18.354Z,34.88
2022-12-02T21:43:50.436Z,36.10
2022-12-02T21:46:20.238Z,41.28
2022-12-02T21:48:49.925Z,37.92
2022-12-02T21:51:17.179Z,36.30
2022-12-02T21:53:44.452Z,31.35
2022-12-02T21:56:11.731Z,35.65
2022-12-02T21:58:39.076Z,33.70
2022-12-02T22:01:25.234Z,32.95
2022-12-02T22:03:52.619Z,33.42
2022-12-02T22:06:20.080Z,35.88
2022-12-02T22:08:47.813Z,31.48
2022-12-02T22:11:15.250Z,33.90
2022-12-02T22:13:42.542Z,31.90
2022-12-02T22:16:09.771Z,33.17
2022-12-02T22:18:37.116Z,32.60
2022-12-02T22:21:04.808Z,33.65
2022-12-02T22:23:34.551Z,35.47
2022-12-02T22:26:01.980Z,32.78
2022-12-02T22:28:29.593Z,31.10
2022-12-02T22:30:57.436Z,34.97
2022-12-02T22:33:28.617Z,32.38
2022-12-02T22:36:00.079Z,30.63
2022-12-02T22:38:27.529Z,30.50
2022-12-02T22:40:54.861Z,30.77
2022-12-02T22:43:22.080Z,29.98
2022-12-02T22:45:53.577Z,30.63
2022-12-02T22:48:20.976Z,36.00
2022-12-02T22:50:48.487Z,37.53
2022-12-02T22:53:15.885Z,31.45
2022-12-02T22:55:43.279Z,33.50
2022-12-02T22:58:10.646Z,34.58
2022-12-02T23:00:37.957Z,28.92
2022-12-02T23:03:07.581Z,31.30
2022-12-02T23:05:35.329Z,32.15
2022-12-02T23:08:05.060Z,29.48
2022-12-02T23:10:32.526Z,32.40
2022-12-02T23:12:59.855Z,29.00
2022-12-02T23:15:36.434Z,30.13
2022-12-02T23:18:08.775Z,29.40
2022-12-02T23:20:36.688Z,35.33
2022-12-02T23:23:04.300Z,31.17
2022-12-02T23:25:31.832Z,32.45
2022-12-02T23:27:59.308Z,30.30
2022-12-02T23:30:29.289Z,30.50
2022-12-02T23:32:58.483Z,28.67
2022-12-02T23:35:27.900Z,28.15
2022-12-02T23:37:55.327Z,30.85
2022-12-02T23:40:22.839Z,29.90
2022-12-02T23:42:50.318Z,28.55
2022-12-02T23:45:17.751Z,31.27
2022-12-02T23:47:44.949Z,25.83
2022-12-02T23:50:12.842Z,28.33
2022-12-02T23:53:04.872Z,25.40
2022-12-02T23:55:32.280Z,24.98
2022-12-02T23:57:59.633Z,24.33
